Time;durP1;ratioP1;P1;durP2;ratioP2;P2;SDS_P1;SDS_P2;PMS_P1;PMS_P2;Temp;Humidity;BMP_temperature;BMP_pressure;BME280_temperature;BME280_humidity;BME280_pressure;Samples;Min_cycle;Max_cycle;Signal;HPM_P1;HPM_P2
2024/03/16 00:02:13;;;;;;;1.77;0.67;;;12.10;1.00;;;;;;5078144;28;20532;-38
2024/03/16 00:04:39;;;;;;;1.07;0.47;;;12.10;1.00;;;;;;5058646;28;20493;-37
2024/03/16 00:07:05;;;;;;;0.90;0.50;;;12.10;1.00;;;;;;5078140;28;20439;-40
2024/03/16 00:09:32;;;;;;;1.10;0.60;;;12.10;1.00;;;;;;5075706;28;20423;-39
2024/03/16 00:11:57;;;;;;;2.50;0.80;;;12.10;1.00;;;;;;5076004;28;20420;-39
2024/03/16 00:14:23;;;;;;;1.63;0.63;;;12.00;1.00;;;;;;5074533;28;20734;-39
2024/03/16 00:16:49;;;;;;;1.83;0.50;;;12.00;1.00;;;;;;5075885;28;20173;-38
2024/03/16 00:19:14;;;;;;;3.70;0.53;;;12.00;1.00;;;;;;5058209;28;20177;-38
2024/03/16 00:21:40;;;;;;;1.20;0.50;;;12.00;1.00;;;;;;5075225;28;20276;-40
2024/03/16 00:24:08;;;;;;;1.97;0.50;;;11.90;1.00;;;;;;5075581;28;20514;-39
2024/03/16 00:26:33;;;;;;;2.40;0.50;;;11.90;1.00;;;;;;5060107;28;20178;-37
2024/03/16 00:29:00;;;;;;;1.20;0.50;;;11.90;1.00;;;;;;5060135;28;20518;-37
2024/03/16 00:31:26;;;;;;;0.80;0.30;;;11.80;1.00;;;;;;5076142;28;20181;-38
2024/03/16 00:33:53;;;;;;;1.17;0.60;;;11.80;1.00;;;;;;5075953;28;20525;-39
2024/03/16 00:36:19;;;;;;;1.10;0.60;;;11.80;1.00;;;;;;5078023;28;20250;-37
2024/03/16 00:38:49;;;;;;;1.10;0.60;;;11.70;1.00;;;;;;5060130;28;20431;-37
2024/03/16 00:41:16;;;;;;;1.10;0.80;;;11.70;1.00;;;;;;5059952;28;20424;-38
2024/03/16 00:43:43;;;;;;;0.97;0.53;;;11.60;1.00;;;;;;5076788;28;20860;-37
2024/03/16 00:46:09;;;;;;;0.80;0.50;;;11.60;1.00;;;;;;5077273;28;20455;-37
2024/03/16 00:48:35;;;;;;;2.00;0.63;;;11.50;1.00;;;;;;5078777;28;20459;-38
2024/03/16 00:51:01;;;;;;;1.80;0.70;;;11.50;1.00;;;;;;5076840;28;20196;-38
2024/03/16 00:53:26;;;;;;;1.70;0.50;;;11.50;1.00;;;;;;5060732;28;20531;-38
2024/03/16 00:55:52;;;;;;;1.23;0.50;;;11.40;1.00;;;;;;5084439;28;20416;-37
2024/03/16 00:58:18;;;;;;;1.00;0.50;;;11.40;1.00;;;;;;5084389;28;20595;-38
2024/03/16 01:00:43;;;;;;;1.17;1.00;;;11.40;1.00;;;;;;5084962;28;20199;-38
2024/03/16 01:03:09;;;;;;;0.90;0.50;;;11.40;1.00;;;;;;5081455;28;20485;-36
2024/03/16 01:05:34;;;;;;;2.40;0.80;;;11.40;1.00;;;;;;5077210;28;20173;-37
2024/03/16 01:08:00;;;;;;;3.73;0.60;;;11.30;1.00;;;;;;5077515;28;20184;-38
2024/03/16 01:10:26;;;;;;;1.10;0.57;;;11.30;16.70;;;;;;5077465;28;20178;-39
2024/03/16 01:12:51;;;;;;;0.80;0.47;;;11.30;38.90;;;;;;5042965;28;20216;-41
2024/03/16 01:15:17;;;;;;;1.07;0.50;;;11.30;35.40;;;;;;5077427;28;20178;-37
2024/03/16 01:17:43;;;;;;;1.20;0.53;;;11.30;56.10;;;;;;5059867;28;20196;-37
2024/03/16 01:20:09;;;;;;;0.80;0.40;;;11.30;93.20;;;;;;5076951;28;20309;-37
2024/03/16 01:22:35;;;;;;;4.43;0.47;;;11.30;63.20;;;;;;5058590;28;21169;-37
2024/03/16 01:25:01;;;;;;;2.17;0.50;;;11.30;74.10;;;;;;5077593;28;20431;-37
2024/03/16 01:27:27;;;;;;;1.17;0.43;;;11.30;99.90;;;;;;5076995;28;20879;-37
2024/03/16 01:29:53;;;;;;;1.20;0.57;;;11.30;99.90;;;;;;5076387;28;20427;-37
2024/03/16 01:32:18;;;;;;;3.23;0.60;;;11.20;99.90;;;;;;5075849;28;20581;-37
2024/03/16 01:34:44;;;;;;;0.90;0.43;;;11.20;99.90;;;;;;5075391;28;20568;-38
2024/03/16 01:37:13;;;;;;;1.20;0.50;;;11.20;99.90;;;;;;5076724;28;20177;-37
2024/03/16 01:39:39;;;;;;;1.30;0.47;;;11.20;99.90;;;;;;5076498;28;20177;-37
2024/03/16 01:42:06;;;;;;;2.07;0.80;;;11.10;99.90;;;;;;5076444;28;20423;-36
2024/03/16 01:44:32;;;;;;;1.07;0.53;;;11.10;99.90;;;;;;5058535;28;20490;-37
2024/03/16 01:46:58;;;;;;;1.17;0.40;;;11.00;99.90;;;;;;5077107;28;20411;-38
2024/03/16 01:49:24;;;;;;;1.83;0.60;;;11.00;99.90;;;;;;5077386;28;20431;-37
2024/03/16 01:51:49;;;;;;;1.87;0.60;;;11.00;99.90;;;;;;5077782;28;20445;-37
2024/03/16 01:54:15;;;;;;;3.50;0.53;;;10.90;1.00;;;;;;5059156;28;20259;-38
2024/03/16 01:56:40;;;;;;;1.07;0.33;;;10.90;1.00;;;;;;5077722;28;20246;-39
2024/03/16 01:59:06;;;;;;;0.93;0.53;;;10.90;1.00;;;;;;5077311;28;20196;-38
2024/03/16 02:01:32;;;;;;;1.43;0.60;;;10.90;1.00;;;;;;5060068;28;20188;-39
2024/03/16 02:03:57;;;;;;;1.20;0.50;;;10.90;1.00;;;;;;5076284;28;20217;-37
2024/03/16 02:06:24;;;;;;;1.00;0.60;;;10.90;1.00;;;;;;5076712;28;20174;-38
2024/03/16 02:08:51;;;;;;;1.20;0.47;;;10.90;1.00;;;;;;5077399;28;20192;-38
2024/03/16 02:11:17;;;;;;;1.10;0.50;;;10.90;1.00;;;;;;5076893;28;20446;-38
2024/03/16 02:13:42;;;;;;;1.10;0.60;;;10.80;1.00;;;;;;5077007;28;20416;-38
2024/03/16 02:16:08;;;;;;;0.97;0.47;;;10.80;1.00;;;;;;5077112;28;20193;-38
2024/03/16 02:18:35;;;;;;;0.90;0.50;;;10.80;1.00;;;;;;5077606;28;20185;-38
2024/03/16 02:21:03;;;;;;;1.97;0.60;;;10.80;1.00;;;;;;5077293;28;20470;-36
2024/03/16 02:23:31;;;;;;;0.80;0.40;;;10.90;1.00;;;;;;5076678;28;20718;-38
2024/03/16 02:25:57;;;;;;;1.30;0.50;;;10.90;1.00;;;;;;5077048;28;20884;-38
2024/03/16 02:28:23;;;;;;;1.57;0.60;;;10.90;1.00;;;;;;5075992;28;20435;-38
2024/03/16 02:30:48;;;;;;;1.00;0.43;;;10.90;1.00;;;;;;5057884;28;20694;-37
2024/03/16 02:33:15;;;;;;;1.27;0.67;;;10.90;1.00;;;;;;5076536;28;20181;-38
2024/03/16 02:35:42;;;;;;;1.73;0.60;;;10.90;1.00;;;;;;5077063;28;20206;-38
2024/03/16 02:38:09;;;;;;;1.00;0.50;;;10.90;1.00;;;;;;5077026;28;20483;-38
2024/03/16 02:40:35;;;;;;;1.20;0.50;;;10.80;1.00;;;;;;5080189;28;20403;-38
2024/03/16 02:43:01;;;;;;;1.27;0.63;;;10.80;1.00;;;;;;5079610;28;20463;-38
2024/03/16 02:45:26;;;;;;;1.40;0.50;;;10.80;1.00;;;;;;5080674;28;20431;-36
2024/03/16 02:47:52;;;;;;;1.20;0.40;;;10.80;1.00;;;;;;5078504;28;20486;-38
2024/03/16 02:50:17;;;;;;;1.30;0.50;;;10.80;1.00;;;;;;5080023;28;20173;-38
2024/03/16 02:52:43;;;;;;;1.70;0.70;;;10.80;1.00;;;;;;5062084;28;20252;-37
2024/03/16 02:55:09;;;;;;;1.33;0.80;;;10.80;1.00;;;;;;5079394;28;20225;-38
2024/03/16 02:57:35;;;;;;;1.73;0.60;;;10.80;1.00;;;;;;5079274;28;20177;-38
2024/03/16 03:00:00;;;;;;;0.90;0.40;;;10.80;1.00;;;;;;5079992;28;20263;-38
2024/03/16 03:02:28;;;;;;;1.37;0.70;;;10.80;1.00;;;;;;5079835;28;20492;-38
2024/03/16 03:04:53;;;;;;;2.47;0.70;;;10.80;1.00;;;;;;5080404;28;20230;-38
2024/03/16 03:07:19;;;;;;;2.20;0.60;;;10.80;1.00;;;;;;5080171;28;20920;-39
2024/03/16 03:09:46;;;;;;;1.10;0.73;;;10.70;1.00;;;;;;5080367;28;20268;-38
2024/03/16 03:12:12;;;;;;;0.90;0.50;;;10.70;1.00;;;;;;5062243;28;20563;-37
2024/03/16 03:14:38;;;;;;;1.40;0.60;;;10.70;1.00;;;;;;5079446;28;20428;-38
2024/03/16 03:17:04;;;;;;;1.47;0.50;;;10.70;1.00;;;;;;5079395;28;20449;-38
2024/03/16 03:19:30;;;;;;;1.73;0.80;;;10.70;1.00;;;;;;5079162;28;20415;-36
2024/03/16 03:21:56;;;;;;;0.90;0.40;;;10.70;1.00;;;;;;5079219;28;20196;-38
2024/03/16 03:24:21;;;;;;;1.10;0.53;;;10.70;1.00;;;;;;5079606;28;20570;-38
2024/03/16 03:26:47;;;;;;;1.00;0.53;;;10.70;1.00;;;;;;5079507;28;20250;-38
2024/03/16 03:29:13;;;;;;;1.07;0.50;;;10.70;1.00;;;;;;5079471;28;20169;-37
2024/03/16 03:31:38;;;;;;;1.80;0.60;;;10.70;1.00;;;;;;5079194;28;20579;-38
2024/03/16 03:34:04;;;;;;;2.00;1.27;;;10.70;1.00;;;;;;5079227;28;20209;-37
2024/03/16 03:36:30;;;;;;;1.43;0.50;;;10.70;1.00;;;;;;5078671;28;20476;-37
2024/03/16 03:38:55;;;;;;;1.27;0.60;;;10.70;1.00;;;;;;5078906;28;20185;-37
2024/03/16 03:41:22;;;;;;;1.17;0.60;;;10.60;1.00;;;;;;5078830;28;20431;-37
2024/03/16 03:43:57;;;;;;;0.90;0.47;;;10.60;1.00;;;;;;5078279;28;20197;-37
2024/03/16 03:46:39;;;;;;;2.10;0.70;;;10.70;1.00;;;;;;5078438;28;20454;-37
2024/03/16 03:52:13;;;;;;;0.90;0.57;;;10.60;1.00;;;;;;5078891;28;20419;-37
2024/03/16 03:54:39;;;;;;;3.13;0.60;;;10.60;1.00;;;;;;5119408;28;20436;-38
2024/03/16 03:57:05;;;;;;;1.37;0.50;;;10.60;1.00;;;;;;5118758;28;20812;-38
2024/03/16 03:59:31;;;;;;;1.77;0.67;;;10.60;1.00;;;;;;5119827;28;20642;-37
2024/03/16 04:01:57;;;;;;;1.03;0.50;;;10.60;1.00;;;;;;5119227;28;20432;-37
2024/03/16 04:04:22;;;;;;;1.50;0.63;;;10.60;1.00;;;;;;5119333;28;20215;-37
2024/03/16 04:06:48;;;;;;;2.93;0.50;;;10.60;1.00;;;;;;5119444;28;20587;-37
2024/03/16 04:09:14;;;;;;;1.37;0.60;;;10.70;1.00;;;;;;5119212;28;20450;-37
2024/03/16 04:11:39;;;;;;;1.70;0.70;;;10.70;1.00;;;;;;5119182;28;20579;-37
2024/03/16 04:14:06;;;;;;;1.17;0.70;;;10.70;1.70;;;;;;5119089;28;20417;-38
2024/03/16 04:16:32;;;;;;;1.63;0.80;;;10.70;10.40;;;;;;5119539;28;20569;-37
2024/03/16 04:18:57;;;;;;;1.63;0.60;;;10.70;6.10;;;;;;5119211;28;20479;-37
2024/03/16 04:21:23;;;;;;;1.63;0.80;;;10.70;13.80;;;;;;5119098;28;20264;-38
2024/03/16 04:23:48;;;;;;;1.40;0.67;;;10.70;20.50;;;;;;5118823;28;20203;-36
2024/03/16 04:26:14;;;;;;;1.73;0.47;;;10.70;23.40;;;;;;5100956;28;20179;-38
2024/03/16 04:28:40;;;;;;;1.50;0.90;;;10.80;27.90;;;;;;5118734;28;20171;-37
2024/03/16 04:31:05;;;;;;;2.63;0.93;;;10.80;30.40;;;;;;5118818;28;20178;-38
2024/03/16 04:33:31;;;;;;;2.27;0.90;;;10.80;32.70;;;;;;5118717;28;20172;-37
2024/03/16 04:35:57;;;;;;;1.73;0.70;;;10.80;41.40;;;;;;5118503;28;20175;-37
2024/03/16 04:38:22;;;;;;;2.80;1.00;;;10.80;49.60;;;;;;5118817;28;20646;-38
2024/03/16 04:40:49;;;;;;;1.63;0.73;;;10.80;52.60;;;;;;5118847;28;20203;-37
2024/03/16 04:43:16;;;;;;;1.10;0.67;;;10.80;39.30;;;;;;5118037;28;20200;-37
2024/03/16 04:45:45;;;;;;;2.27;0.73;;;10.90;51.60;;;;;;5118470;28;20414;-38
2024/03/16 04:48:11;;;;;;;1.57;0.53;;;10.90;93.00;;;;;;5118943;28;20444;-38
2024/03/16 04:50:37;;;;;;;3.30;1.17;;;10.90;99.90;;;;;;5118684;28;20421;-38
2024/03/16 04:53:03;;;;;;;1.43;0.80;;;10.80;99.90;;;;;;5117113;28;20270;-38
2024/03/16 04:55:29;;;;;;;2.07;1.10;;;10.90;99.90;;;;;;5118551;28;20824;-37
2024/03/16 04:57:54;;;;;;;1.67;0.87;;;10.90;99.90;;;;;;5117806;28;20206;-37
2024/03/16 05:00:20;;;;;;;3.37;0.93;;;10.90;99.90;;;;;;5116469;28;20179;-38
2024/03/16 05:02:46;;;;;;;2.03;1.10;;;10.80;99.90;;;;;;5116294;28;20677;-38
2024/03/16 05:05:11;;;;;;;1.93;0.80;;;10.80;99.90;;;;;;5115689;28;20470;-37
2024/03/16 05:07:37;;;;;;;1.50;0.70;;;10.90;99.90;;;;;;5099435;28;20282;-37
2024/03/16 05:10:04;;;;;;;2.07;0.80;;;10.90;99.90;;;;;;5117891;28;20263;-38
2024/03/16 05:12:30;;;;;;;1.20;0.83;;;10.90;99.90;;;;;;5118068;28;20171;-37
2024/03/16 05:14:55;;;;;;;2.23;0.67;;;10.90;99.90;;;;;;5118409;28;20437;-39
2024/03/16 05:17:21;;;;;;;2.10;0.90;;;10.90;99.90;;;;;;5118130;28;20180;-38
2024/03/16 05:19:48;;;;;;;1.70;0.90;;;10.90;99.90;;;;;;5118403;28;20542;-37
2024/03/16 05:22:13;;;;;;;2.37;0.87;;;11.00;99.90;;;;;;5099542;28;20182;-38
2024/03/16 05:24:39;;;;;;;1.07;0.87;;;11.00;99.90;;;;;;5117618;28;20485;-36
2024/03/16 05:27:07;;;;;;;3.00;1.10;;;11.00;99.90;;;;;;5100341;28;20187;-38
2024/03/16 05:29:33;;;;;;;2.00;0.80;;;11.00;99.90;;;;;;5117934;28;20484;-41
2024/03/16 05:31:59;;;;;;;1.50;0.70;;;11.00;99.90;;;;;;5097906;28;20503;-37
2024/03/16 05:34:25;;;;;;;2.13;0.70;;;11.00;99.90;;;;;;5117274;28;20458;-37
2024/03/16 05:36:51;;;;;;;1.23;0.90;;;11.00;99.90;;;;;;5099185;28;20418;-38
2024/03/16 05:39:17;;;;;;;1.20;0.67;;;11.00;84.20;;;;;;5121941;28;20180;-37
2024/03/16 05:41:43;;;;;;;1.40;0.70;;;11.00;77.90;;;;;;5124393;28;20425;-38
2024/03/16 05:44:10;;;;;;;1.53;1.00;;;11.00;94.30;;;;;;5123249;28;20473;-37
2024/03/16 05:46:36;;;;;;;2.93;1.07;;;11.00;99.90;;;;;;5119386;28;20418;-38
2024/03/16 05:49:01;;;;;;;2.30;0.90;;;11.00;99.90;;;;;;5099382;28;20501;-37
2024/03/16 05:51:28;;;;;;;3.53;1.13;;;11.00;99.90;;;;;;5099472;28;20203;-36
2024/03/16 05:53:54;;;;;;;3.13;1.10;;;11.00;99.90;;;;;;5116428;28;20224;-37
2024/03/16 05:56:21;;;;;;;2.17;0.80;;;11.10;99.90;;;;;;5098250;28;20589;-37
2024/03/16 05:58:46;;;;;;;3.90;0.90;;;11.10;99.90;;;;;;5117169;28;20433;-38
2024/03/16 06:01:12;;;;;;;1.13;0.70;;;11.10;99.90;;;;;;5117247;28;20413;-38
2024/03/16 06:03:38;;;;;;;1.60;0.70;;;11.10;99.90;;;;;;5117128;28;20485;-37
2024/03/16 06:06:04;;;;;;;2.00;0.87;;;11.10;94.20;;;;;;5117754;28;20172;-37
2024/03/16 06:08:31;;;;;;;1.90;0.97;;;11.20;99.90;;;;;;5082352;28;20315;-40
2024/03/16 06:10:57;;;;;;;3.40;1.00;;;11.20;93.00;;;;;;5117333;28;20521;-39
2024/03/16 06:13:22;;;;;;;1.43;0.90;;;11.20;77.90;;;;;;5118365;28;20524;-40
2024/03/16 06:15:49;;;;;;;1.77;0.67;;;11.20;56.40;;;;;;5121327;28;20202;-37
2024/03/16 06:18:14;;;;;;;3.20;0.70;;;11.30;35.90;;;;;;5120803;28;20237;-38
2024/03/16 06:20:40;;;;;;;2.10;0.83;;;11.30;20.40;;;;;;5121332;28;20433;-37
2024/03/16 06:23:06;;;;;;;1.97;0.57;;;11.30;7.60;;;;;;5102369;28;20207;-38
2024/03/16 06:25:40;;;;;;;0.90;0.57;;;11.40;1.00;;;;;;5119291;28;20179;-38
2024/03/16 06:28:06;;;;;;;1.60;0.60;;;11.40;1.00;;;;;;5119934;28;20449;-38
2024/03/16 06:30:31;;;;;;;1.60;0.57;;;11.40;1.00;;;;;;5120864;28;20409;-37
2024/03/16 06:33:10;;;;;;;2.30;0.80;;;11.50;1.00;;;;;;5102561;28;20187;-38
2024/03/16 06:35:43;;;;;;;1.43;0.50;;;11.50;1.00;;;;;;5118678;28;20180;-43
2024/03/16 06:38:09;;;;;;;1.80;0.50;;;11.60;1.00;;;;;;5120142;28;20421;-38
2024/03/16 06:40:34;;;;;;;1.60;0.50;;;11.60;1.00;;;;;;5119443;28;20426;-39
2024/03/16 06:43:00;;;;;;;1.00;0.50;;;11.80;1.00;;;;;;5120609;28;20541;-39
2024/03/16 06:45:25;;;;;;;1.00;0.40;;;12.00;1.00;;;;;;5121207;28;20263;-39
2024/03/16 06:47:51;;;;;;;1.40;0.77;;;12.20;1.00;;;;;;5120551;28;20180;-38
2024/03/16 06:50:17;;;;;;;1.73;0.43;;;12.60;1.00;;;;;;5119333;28;20504;-39
2024/03/16 06:52:43;;;;;;;1.57;0.53;;;12.80;99.90;;;;;;5081017;28;20520;-40
2024/03/16 06:55:08;;;;;;;1.07;0.47;;;13.00;99.90;;;;;;5098875;28;20418;-38
2024/03/16 06:57:34;;;;;;;1.80;0.90;;;13.00;99.90;;;;;;5097598;28;20568;-41
2024/03/16 07:00:00;;;;;;;1.83;0.70;;;13.00;18.10;;;;;;5098523;28;20219;-40
2024/03/16 07:02:25;;;;;;;2.53;1.10;;;13.00;1.00;;;;;;5095975;28;20187;-37
2024/03/16 07:04:51;;;;;;;3.83;1.00;;;12.90;69.50;;;;;;5096856;28;20490;-37
2024/03/16 07:07:17;;;;;;;1.87;1.10;;;12.90;99.90;;;;;;5097343;28;20569;-38
2024/03/16 07:09:42;;;;;;;3.20;1.80;;;12.80;99.90;;;;;;5097545;28;20574;-39
2024/03/16 07:12:08;;;;;;;2.97;1.83;;;12.70;99.90;;;;;;5098993;28;20204;-41
2024/03/16 07:14:34;;;;;;;5.73;2.10;;;12.70;99.90;;;;;;5098192;28;20181;-38
2024/03/16 07:17:00;;;;;;;2.50;1.60;;;12.60;99.90;;;;;;5096665;28;20480;-39
2024/03/16 07:19:25;;;;;;;3.00;1.30;;;12.60;99.90;;;;;;5096336;28;20255;-39
2024/03/16 07:21:51;;;;;;;2.23;1.40;;;12.60;1.00;;;;;;5098063;28;20176;-38
2024/03/16 07:24:17;;;;;;;2.10;1.17;;;12.60;1.00;;;;;;5096680;28;20211;-38
2024/03/16 07:26:43;;;;;;;3.20;1.63;;;12.70;1.00;;;;;;5099284;28;20762;-39
2024/03/16 07:29:10;;;;;;;3.00;1.57;;;12.60;1.00;;;;;;5099655;28;20461;-38
2024/03/16 07:31:35;;;;;;;3.30;1.40;;;12.70;1.00;;;;;;5098732;28;20661;-38
2024/03/16 07:34:03;;;;;;;1.93;1.20;;;12.70;1.00;;;;;;5097915;28;20426;-41
2024/03/16 07:36:29;;;;;;;3.33;1.33;;;12.70;1.00;;;;;;5096497;28;20179;-38
2024/03/16 07:38:56;;;;;;;2.00;1.63;;;12.80;1.00;;;;;;5096796;28;20430;-38
2024/03/16 07:41:21;;;;;;;2.27;1.00;;;12.80;1.00;;;;;;5096101;28;20488;-38
2024/03/16 07:43:47;;;;;;;2.97;1.47;;;12.90;1.00;;;;;;5097733;28;20465;-40
2024/03/16 07:46:13;;;;;;;3.03;1.40;;;12.90;1.00;;;;;;5096667;28;20171;-38
2024/03/16 07:48:38;;;;;;;4.77;1.43;;;13.00;1.00;;;;;;5097213;28;20176;-38
2024/03/16 07:51:04;;;;;;;2.80;1.40;;;13.10;1.00;;;;;;5098052;28;20431;-38
2024/03/16 07:53:33;;;;;;;4.03;1.97;;;13.20;1.00;;;;;;5111258;28;20228;-39
2024/03/16 07:55:59;;;;;;;4.37;1.60;;;13.30;1.00;;;;;;5120027;28;20429;-40
2024/03/16 07:58:25;;;;;;;2.70;1.10;;;13.50;1.00;;;;;;5120125;28;20884;-38
2024/03/16 08:00:51;;;;;;;2.80;1.40;;;13.50;99.90;;;;;;5119576;28;20168;-38
2024/03/16 08:03:20;;;;;;;3.17;1.17;;;13.60;99.90;;;;;;5101394;28;20520;-39
2024/03/16 08:05:46;;;;;;;2.57;1.20;;;13.70;99.90;;;;;;5119124;28;20180;-38
2024/03/16 08:08:12;;;;;;;1.90;1.17;;;13.70;99.90;;;;;;5118614;28;20516;-38
2024/03/16 08:10:38;;;;;;;1.83;1.20;;;13.70;99.90;;;;;;5118439;28;20422;-39
2024/03/16 08:13:04;;;;;;;2.60;1.27;;;13.70;99.90;;;;;;5119935;28;20402;-39
2024/03/16 08:15:30;;;;;;;1.70;0.97;;;13.60;99.90;;;;;;5123071;28;20409;-39
2024/03/16 08:17:57;;;;;;;2.90;1.00;;;13.60;99.90;;;;;;5106389;28;20263;-39
2024/03/16 08:20:23;;;;;;;2.80;1.10;;;13.60;99.90;;;;;;5124836;28;20176;-38
2024/03/16 08:22:53;;;;;;;5.03;1.40;;;13.50;99.90;;;;;;5105844;28;20437;-38
2024/03/16 08:25:22;;;;;;;3.00;1.37;;;13.50;99.90;;;;;;5125155;28;20405;-38
2024/03/16 08:27:48;;;;;;;3.73;1.33;;;13.40;99.90;;;;;;5124089;28;20398;-39
2024/03/16 08:30:13;;;;;;;3.93;1.67;;;13.30;1.00;;;;;;5120015;28;20688;-38
2024/03/16 08:32:40;;;;;;;1.77;1.00;;;13.30;1.00;;;;;;5101203;28;20358;-38
2024/03/16 08:35:06;;;;;;;2.30;0.90;;;13.30;1.00;;;;;;5117638;28;20176;-38
2024/03/16 08:37:32;;;;;;;1.97;1.00;;;13.30;1.00;;;;;;5117121;28;20429;-38
2024/03/16 08:39:58;;;;;;;2.17;1.00;;;13.40;1.00;;;;;;5115922;28;20581;-38
2024/03/16 08:42:24;;;;;;;2.40;0.80;;;13.50;1.00;;;;;;5115121;28;20417;-40
2024/03/16 08:44:50;;;;;;;2.43;0.83;;;13.60;1.00;;;;;;5115462;28;20585;-38
2024/03/16 08:47:15;;;;;;;1.20;0.60;;;13.70;99.90;;;;;;5116188;28;20453;-39
2024/03/16 08:49:41;;;;;;;1.10;0.60;;;13.90;99.90;;;;;;5100264;28;20191;-39
2024/03/16 08:52:07;;;;;;;1.60;0.70;;;14.20;99.90;;;;;;5095716;28;20275;-38
2024/03/16 08:54:32;;;;;;;5.80;0.50;;;14.60;99.90;;;;;;5098484;28;20211;-47
2024/03/16 08:56:59;;;;;;;3.47;0.47;;;15.10;54.80;;;;;;5116857;28;20473;-44
2024/03/16 08:59:25;;;;;;;3.10;0.50;;;16.20;1.00;;;;;;5098802;28;20440;-49
2024/03/16 09:01:51;;;;;;;46.07;15.63;;;16.90;99.90;;;;;;5116606;28;20549;-45
2024/03/16 09:04:16;;;;;;;50.00;15.63;;;17.60;1.00;;;;;;5116201;28;20199;-45
2024/03/16 09:06:43;;;;;;;34.97;12.30;;;18.10;99.90;;;;;;5097939;28;20443;-44
2024/03/16 09:09:11;;;;;;;28.90;11.40;;;18.50;99.90;;;;;;5096649;28;20433;-46
2024/03/16 09:11:40;;;;;;;33.70;11.80;;;19.00;1.00;;;;;;5115831;28;20188;-45
2024/03/16 09:14:06;;;;;;;25.93;9.53;;;19.30;1.00;;;;;;5115368;28;20425;-46
2024/03/16 09:16:34;;;;;;;19.27;7.33;;;19.50;99.90;;;;;;5108470;28;20540;-46
2024/03/16 09:19:01;;;;;;;14.83;5.73;;;19.70;1.00;;;;;;5096282;28;20415;-44
2024/03/16 09:21:27;;;;;;;10.90;4.63;;;19.80;1.00;;;;;;5096022;28;20579;-44
2024/03/16 09:23:52;;;;;;;9.27;4.20;;;19.80;1.00;;;;;;5094733;28;20481;-45
2024/03/16 09:26:18;;;;;;;11.00;3.97;;;20.00;1.00;;;;;;5095922;28;20192;-45
2024/03/16 09:28:44;;;;;;;8.20;2.83;;;20.40;99.90;;;;;;5094924;28;20241;-45
2024/03/16 09:31:10;;;;;;;7.17;2.57;;;20.70;99.90;;;;;;5093633;28;20180;-46
2024/03/16 09:33:36;;;;;;;5.10;2.03;;;20.70;99.90;;;;;;5094603;28;20686;-45
2024/03/16 09:36:03;;;;;;;3.40;1.40;;;20.70;99.90;;;;;;5096026;28;20180;-46
2024/03/16 09:38:28;;;;;;;4.77;1.47;;;20.70;99.90;;;;;;5095488;28;20527;-44
2024/03/16 09:40:57;;;;;;;3.70;1.23;;;20.80;99.90;;;;;;5094891;28;20426;-44
2024/03/16 09:43:23;;;;;;;6.93;1.83;;;20.90;99.90;;;;;;5094257;28;20247;-45
2024/03/16 09:45:50;;;;;;;2.20;1.27;;;21.00;99.90;;;;;;5095293;28;20445;-44
2024/03/16 09:48:16;;;;;;;1.93;1.30;;;21.10;99.90;;;;;;5096428;28;20530;-43
2024/03/16 09:50:49;;;;;;;2.20;0.87;;;21.40;99.90;;;;;;5100125;28;20825;-44
2024/03/16 09:53:35;;;;;;;1.80;1.03;;;21.70;98.20;;;;;;5097786;28;20490;-46
2024/03/16 09:56:16;;;;;;;2.03;1.10;;;22.20;63.10;;;;;;5080213;28;20766;-43
2024/03/16 09:58:41;;;;;;;1.57;0.73;;;22.80;28.70;;;;;;5079600;28;20524;-46
2024/03/16 10:01:08;;;;;;;2.20;1.00;;;23.40;9.00;;;;;;5097591;28;20901;-43
2024/03/16 10:03:35;;;;;;;3.30;1.17;;;23.90;1.00;;;;;;5098964;28;20273;-45
2024/03/16 10:06:05;;;;;;;1.47;0.67;;;24.50;1.00;;;;;;5097895;28;20649;-44
2024/03/16 10:08:31;;;;;;;1.60;0.80;;;25.10;1.00;;;;;;5098171;28;20414;-44
2024/03/16 10:11:12;;;;;;;1.77;0.80;;;25.80;1.00;;;;;;5099645;28;20433;-44
2024/03/16 10:13:38;;;;;;;2.27;0.77;;;26.10;1.00;;;;;;5098893;28;20482;-44
2024/03/16 10:16:08;;;;;;;2.70;0.70;;;25.90;1.00;;;;;;5098929;28;20411;-44
2024/03/16 10:18:35;;;;;;;1.83;0.70;;;25.40;1.00;;;;;;5081389;28;20422;-44
2024/03/16 10:21:01;;;;;;;1.60;0.50;;;24.90;1.00;;;;;;5064620;28;20427;-44
2024/03/16 10:23:30;;;;;;;2.97;0.63;;;24.40;1.00;;;;;;5099311;28;20553;-44
2024/03/16 10:25:56;;;;;;;2.43;0.73;;;23.90;1.00;;;;;;5099086;28;20433;-46
2024/03/16 10:28:22;;;;;;;1.90;0.90;;;23.40;1.00;;;;;;5098522;28;20862;-45
2024/03/16 10:30:48;;;;;;;1.33;0.60;;;22.90;1.00;;;;;;5098435;28;20406;-43
2024/03/16 10:33:18;;;;;;;2.20;0.70;;;22.50;1.00;;;;;;5082072;28;20422;-43
2024/03/16 10:35:45;;;;;;;2.90;0.60;;;22.20;1.00;;;;;;5099453;28;20469;-43
2024/03/16 10:38:16;;;;;;;1.33;0.50;;;21.90;1.00;;;;;;5099822;28;20421;-46
2024/03/16 10:40:43;;;;;;;2.60;0.63;;;21.70;1.00;;;;;;5065309;28;20441;-43
2024/03/16 10:43:19;;;;;;;3.00;0.70;;;21.50;1.00;;;;;;5080585;28;20410;-46
2024/03/16 10:45:45;;;;;;;1.43;0.50;;;21.40;1.00;;;;;;5099838;28;20479;-43
2024/03/16 10:48:18;;;;;;;2.23;0.43;;;21.30;1.00;;;;;;5098947;28;20414;-44
2024/03/16 10:50:46;;;;;;;1.47;0.60;;;21.30;1.00;;;;;;5097806;28;20426;-48
2024/03/16 10:53:13;;;;;;;1.13;0.40;;;21.20;1.00;;;;;;5078868;28;20458;-45
2024/03/16 10:55:39;;;;;;;1.23;0.50;;;21.20;1.00;;;;;;5098357;28;20426;-43
2024/03/16 10:58:18;;;;;;;1.20;0.60;;;21.20;1.00;;;;;;5096830;28;20410;-44
2024/03/16 11:00:47;;;;;;;1.00;0.40;;;21.40;1.00;;;;;;5095869;28;20653;-45
2024/03/16 11:03:27;;;;;;;1.20;0.50;;;21.50;1.00;;;;;;5060385;28;20499;-44
2024/03/16 11:06:02;;;;;;;1.30;0.40;;;21.80;1.00;;;;;;5096296;28;20450;-46
2024/03/16 11:08:45;;;;;;;1.80;0.93;;;22.10;1.00;;;;;;5098506;28;20410;-47
2024/03/16 11:11:15;;;;;;;2.13;0.80;;;22.80;1.00;;;;;;5097412;28;20768;-43
2024/03/16 11:14:11;;;;;;;4.77;0.83;;;23.30;1.00;;;;;;5096165;28;20429;-44
2024/03/16 11:16:46;;;;;;;15.70;1.90;;;23.80;1.00;;;;;;5097361;28;20740;-45
2024/03/16 11:19:21;;;;;;;4.17;0.90;;;24.30;1.00;;;;;;5097398;28;20402;-45
2024/03/16 11:21:54;;;;;;;4.30;0.70;;;24.90;1.00;;;;;;5097964;28;20417;-44
2024/03/16 11:24:20;;;;;;;1.50;0.60;;;25.60;1.00;;;;;;5097285;28;20429;-46
2024/03/16 11:26:47;;;;;;;2.33;0.53;;;25.70;1.00;;;;;;5096642;28;20451;-45
2024/03/16 11:29:14;;;;;;;1.30;0.70;;;26.20;1.00;;;;;;5097640;28;20389;-42
2024/03/16 11:31:40;;;;;;;1.00;0.63;;;26.80;1.00;;;;;;5097080;28;20763;-43
2024/03/16 11:34:16;;;;;;;1.00;0.50;;;27.50;1.00;;;;;;5094350;28;20785;-43
2024/03/16 11:36:43;;;;;;;1.10;0.60;;;27.70;1.00;;;;;;5097186;28;20421;-44
2024/03/16 11:39:11;;;;;;;1.77;0.70;;;27.60;1.00;;;;;;5097763;28;20429;-43
2024/03/16 11:41:43;;;;;;;1.37;0.67;;;27.20;1.00;;;;;;5097305;28;20430;-45
2024/03/16 11:44:13;;;;;;;1.50;0.60;;;27.40;1.00;;;;;;5097045;28;20440;-43
2024/03/16 11:46:40;;;;;;;2.10;0.60;;;27.60;1.00;;;;;;5080222;28;20439;-46
2024/03/16 11:49:10;;;;;;;3.53;0.87;;;28.00;1.00;;;;;;5095330;28;20499;-45
2024/03/16 11:51:39;;;;;;;1.10;0.57;;;28.60;1.00;;;;;;5098189;28;20453;-47
2024/03/16 11:54:10;;;;;;;2.23;0.80;;;29.00;1.00;;;;;;5097472;28;20514;-44
2024/03/16 11:56:36;;;;;;;1.63;0.50;;;28.60;1.00;;;;;;5097996;28;20778;-45
2024/03/16 11:59:05;;;;;;;1.90;0.50;;;28.10;1.00;;;;;;5079858;28;20502;-45
2024/03/16 12:01:33;;;;;;;1.20;0.63;;;28.10;1.00;;;;;;5076971;28;20442;-43
2024/03/16 12:03:59;;;;;;;1.90;0.63;;;28.20;1.00;;;;;;5078113;28;20476;-44
2024/03/16 12:06:26;;;;;;;1.10;0.60;;;28.40;1.00;;;;;;5098196;28;20401;-44
2024/03/16 12:08:52;;;;;;;1.00;0.50;;;28.60;1.00;;;;;;5097447;28;20397;-46
2024/03/16 12:11:21;;;;;;;1.00;0.60;;;28.90;1.00;;;;;;5076677;28;20451;-45
2024/03/16 12:13:46;;;;;;;4.90;0.70;;;28.60;1.00;;;;;;5095317;28;20397;-45
2024/03/16 12:16:12;;;;;;;1.10;0.60;;;28.10;1.00;;;;;;5078457;28;20738;-46
2024/03/16 12:18:39;;;;;;;1.43;0.67;;;28.40;1.00;;;;;;5095405;28;20463;-43
2024/03/16 12:21:06;;;;;;;1.80;0.57;;;28.40;1.00;;;;;;5095503;28;20203;-45
2024/03/16 12:23:36;;;;;;;1.63;0.70;;;28.70;1.00;;;;;;5077697;28;20452;-45
2024/03/16 12:26:02;;;;;;;1.10;0.53;;;28.50;1.00;;;;;;5094687;28;20410;-45
2024/03/16 12:28:29;;;;;;;1.10;0.53;;;28.10;1.00;;;;;;5097579;28;20426;-44
2024/03/16 12:30:55;;;;;;;1.00;0.60;;;27.50;1.00;;;;;;5077681;28;20843;-45
2024/03/16 12:33:20;;;;;;;2.50;0.67;;;27.00;1.00;;;;;;5077282;28;20408;-43
2024/03/16 12:35:47;;;;;;;1.23;0.60;;;26.90;1.00;;;;;;5096457;28;20734;-46
2024/03/16 12:38:12;;;;;;;1.23;0.60;;;27.20;1.00;;;;;;5096349;28;20271;-44
2024/03/16 12:40:39;;;;;;;1.93;0.80;;;27.10;1.00;;;;;;5095575;28;20504;-43
2024/03/16 12:43:08;;;;;;;0.97;0.40;;;26.80;1.00;;;;;;5095851;28;20180;-44
2024/03/16 12:45:35;;;;;;;1.30;0.60;;;26.80;1.00;;;;;;5095882;28;20422;-46
2024/03/16 12:48:01;;;;;;;1.00;0.60;;;27.60;1.00;;;;;;5096433;28;20393;-43
2024/03/16 12:50:27;;;;;;;1.57;0.60;;;28.50;1.00;;;;;;5077716;28;20736;-43
2024/03/16 12:52:53;;;;;;;1.40;0.70;;;29.60;1.00;;;;;;5095560;28;20500;-45
2024/03/16 12:55:20;;;;;;;4.50;0.93;;;30.60;1.00;;;;;;5095466;28;20271;-46